Terminal Aerodrome Forecast
Issued by NWS Billings, MT

Home | Current Version | Previous Version | Text Only | Print | Product List | Glossary On
Versions: 1 2 3 4 5 6 7 8 9 10 11 12 13 14 15 16 17 18 19 20 21 22 23 24
000
FTUS45 KBYZ 272325
TAFBIL
TAF
KBIL 272325Z 2800/2824 VRB06KT P6SM VCSH SCT060 BKN080
     FM280800 02012KT 6SM -SHRA BKN015 OVC025
     FM281000 36012KT 3SM -SHRA BR BKN008 OVC015
     FM281600 32010KT 5SM -SHRASN BR BKN015 OVC025
     FM281900 32010KT 6SM -SHRA BKN030 OVC050
     FM282200 32010KT P6SM VCSH SCT030 SCT050=

USA.gov is the U.S. government's official web portal to all federal, state and local government web resources and services.